createdAt,value
2023-08-19T00:00:31.720Z,8.75
2023-08-19T00:02:59.949Z,8.82
2023-08-19T00:05:28.097Z,8.77
2023-08-19T00:07:56.059Z,8.73
2023-08-19T00:10:24.176Z,9.30
2023-08-19T00:12:52.100Z,8.77
2023-08-19T00:15:21.386Z,8.50
2023-08-19T00:17:49.736Z,9.27
2023-08-19T00:20:18.040Z,10.02
2023-08-19T00:22:46.710Z,10.07
2023-08-19T00:25:14.668Z,10.00
2023-08-19T00:27:42.570Z,11.20
2023-08-19T00:30:11.286Z,10.68
2023-08-19T00:32:41.270Z,9.55
2023-08-19T00:35:09.792Z,9.77
2023-08-19T00:37:38.110Z,9.77
2023-08-19T00:40:07.819Z,11.18
2023-08-19T00:42:35.747Z,10.80
2023-08-19T00:45:03.881Z,10.50
2023-08-19T00:47:32.235Z,11.38
2023-08-19T00:50:02.164Z,10.15
2023-08-19T00:52:30.652Z,9.70
2023-08-19T00:54:58.887Z,10.57
2023-08-19T00:57:27.698Z,10.05
2023-08-19T00:59:55.772Z,11.52
2023-08-19T01:02:23.698Z,10.57
2023-08-19T01:04:51.812Z,11.45
2023-08-19T01:07:32.853Z,11.02
2023-08-19T01:10:05.572Z,14.25
2023-08-19T01:12:41.720Z,11.75
2023-08-19T01:15:14.104Z,12.05
2023-08-19T01:17:43.844Z,12.50
2023-08-19T01:20:13.568Z,11.90
2023-08-19T01:22:50.853Z,12.10
2023-08-19T01:25:21.964Z,11.98
2023-08-19T01:27:49.944Z,12.32
2023-08-19T01:30:18.337Z,13.23
2023-08-19T01:32:46.926Z,12.93
2023-08-19T01:35:16.269Z,12.75
2023-08-19T01:37:49.613Z,12.85
2023-08-19T01:40:18.372Z,13.50
2023-08-19T01:42:48.477Z,18.67
2023-08-19T01:45:17.339Z,14.70
2023-08-19T01:47:45.426Z,13.43
2023-08-19T01:50:13.515Z,14.48
2023-08-19T01:52:41.595Z,14.52
2023-08-19T01:55:11.096Z,14.73
2023-08-19T01:57:39.071Z,14.35
2023-08-19T02:00:10.754Z,14.38
2023-08-19T02:02:38.817Z,14.55
2023-08-19T02:05:12.698Z,14.80
2023-08-19T02:07:40.863Z,14.30
2023-08-19T02:10:12.035Z,16.02
2023-08-19T02:12:40.104Z,15.38
2023-08-19T02:15:10.744Z,15.55
2023-08-19T02:17:38.891Z,14.77
2023-08-19T02:20:08.569Z,16.60
2023-08-19T02:22:36.433Z,15.77
2023-08-19T02:25:04.624Z,15.73
2023-08-19T02:27:34.140Z,16.63
2023-08-19T02:30:02.433Z,16.38
2023-08-19T02:32:31.877Z,17.15
2023-08-19T02:35:02.853Z,17.55
2023-08-19T02:37:31.254Z,15.65
2023-08-19T02:39:59.854Z,16.05
2023-08-19T02:42:27.872Z,16.27
2023-08-19T02:44:55.903Z,16.42
2023-08-19T02:47:23.943Z,16.52
2023-08-19T02:49:53.411Z,16.17
2023-08-19T02:52:21.442Z,15.65
2023-08-19T02:54:49.402Z,16.25
2023-08-19T02:57:17.477Z,16.90
2023-08-19T02:59:45.445Z,16.02
2023-08-19T03:02:13.339Z,15.35
2023-08-19T03:04:41.345Z,17.10
2023-08-19T03:07:10.729Z,15.23
2023-08-19T03:09:38.745Z,14.90
2023-08-19T03:12:07.603Z,16.00
2023-08-19T03:14:35.485Z,15.38
2023-08-19T03:17:05.087Z,16.17
2023-08-19T03:19:33.038Z,15.05
2023-08-19T03:22:01.169Z,15.45
2023-08-19T03:24:30.522Z,14.77
2023-08-19T03:26:58.716Z,14.95
2023-08-19T03:29:26.883Z,15.30
2023-08-19T03:31:54.873Z,15.38
2023-08-19T03:34:22.940Z,14.90
2023-08-19T03:36:51.421Z,13.90
2023-08-19T03:39:19.629Z,14.73
2023-08-19T03:41:49.485Z,14.25
2023-08-19T03:44:17.411Z,14.77
2023-08-19T03:46:46.278Z,15.45
2023-08-19T03:49:14.295Z,14.73
2023-08-19T03:51:42.196Z,12.48
2023-08-19T03:54:10.603Z,13.73
2023-08-19T03:56:38.672Z,13.70
2023-08-19T03:59:08.699Z,14.43
2023-08-19T04:01:37.134Z,14.32
2023-08-19T04:04:05.432Z,15.25
2023-08-19T04:06:33.467Z,12.90
2023-08-19T04:09:01.905Z,12.70
2023-08-19T04:11:32.898Z,14.52
2023-08-19T04:14:01.134Z,17.80
2023-08-19T04:16:30.665Z,14.57
2023-08-19T04:18:58.908Z,13.15
2023-08-19T04:21:27.968Z,13.30
2023-08-19T04:23:56.344Z,13.25
2023-08-19T04:26:24.342Z,13.43
2023-08-19T04:28:53.242Z,13.35
2023-08-19T04:31:21.435Z,13.13
2023-08-19T04:33:51.071Z,12.57
2023-08-19T04:36:19.057Z,12.88
2023-08-19T04:38:47.160Z,14.18
2023-08-19T04:41:15.075Z,14.75
2023-08-19T04:43:43.032Z,12.40
2023-08-19T04:46:11.474Z,16.95
2023-08-19T04:48:39.496Z,13.85
2023-08-19T04:51:08.932Z,13.23
2023-08-19T04:53:36.836Z,12.73
2023-08-19T04:56:05.466Z,13.90
2023-08-19T04:58:33.694Z,12.88
2023-08-19T05:01:01.683Z,13.02
2023-08-19T05:03:30.031Z,14.48
2023-08-19T05:05:57.952Z,12.63
2023-08-19T05:08:29.225Z,12.85
2023-08-19T05:10:59.065Z,13.27
2023-08-19T05:13:27.191Z,11.50
2023-08-19T05:15:55.384Z,12.55
2023-08-19T05:18:23.349Z,14.52
2023-08-19T05:20:51.336Z,13.98
2023-08-19T05:23:19.651Z,13.05
2023-08-19T05:25:49.039Z,13.57
2023-08-19T05:28:16.937Z,16.65
2023-08-19T05:30:45.142Z,13.85
2023-08-19T05:33:13.114Z,13.05
2023-08-19T05:35:41.173Z,13.23
2023-08-19T05:38:09.120Z,13.25
2023-08-19T05:40:37.168Z,12.20
2023-08-19T05:43:06.629Z,12.90
2023-08-19T05:45:35.378Z,11.77
2023-08-19T05:48:04.779Z,14.13
2023-08-19T05:50:32.738Z,13.30
2023-08-19T05:53:00.813Z,13.07
2023-08-19T05:55:28.809Z,12.95
2023-08-19T05:57:56.764Z,11.93
2023-08-19T06:00:26.134Z,11.18
2023-08-19T06:02:54.646Z,11.18
2023-08-19T06:05:23.321Z,11.00
2023-08-19T06:07:51.244Z,10.55
2023-08-19T06:10:20.030Z,9.85
2023-08-19T06:12:47.968Z,10.77
2023-08-19T06:15:15.967Z,10.32
2023-08-19T06:17:45.338Z,9.35
2023-08-19T06:20:13.679Z,9.73
2023-08-19T06:22:41.541Z,9.82
2023-08-19T06:25:10.080Z,9.70
2023-08-19T06:27:38.209Z,9.50
2023-08-19T06:30:09.539Z,9.02
2023-08-19T06:32:38.060Z,10.88
2023-08-19T06:35:08.925Z,9.25
2023-08-19T06:37:43.045Z,8.95
2023-08-19T06:40:19.863Z,8.85
2023-08-19T06:42:50.116Z,8.50
2023-08-19T06:45:19.431Z,9.38
2023-08-19T06:47:50.502Z,11.50
2023-08-19T06:50:20.848Z,9.07
2023-08-19T06:52:49.634Z,9.77
2023-08-19T06:55:18.557Z,8.77
2023-08-19T06:57:52.465Z,8.73
2023-08-19T07:00:21.955Z,9.70
2023-08-19T07:02:53.906Z,9.32
2023-08-19T07:05:25.089Z,9.57
2023-08-19T07:07:54.954Z,9.82
2023-08-19T07:10:24.366Z,9.93
2023-08-19T07:12:53.126Z,9.48
2023-08-19T07:15:22.284Z,9.60
2023-08-19T07:17:53.172Z,9.18
2023-08-19T07:20:25.060Z,9.90
2023-08-19T07:22:54.962Z,10.73
2023-08-19T07:25:23.564Z,9.30
2023-08-19T07:27:52.614Z,9.25
2023-08-19T07:30:21.726Z,10.05
2023-08-19T07:32:50.233Z,9.52
2023-08-19T07:35:18.513Z,9.20
2023-08-19T07:37:47.807Z,9.70
2023-08-19T07:40:15.674Z,9.25
2023-08-19T07:42:43.617Z,9.07
2023-08-19T07:45:12.695Z,8.52
2023-08-19T07:47:40.796Z,9.13
2023-08-19T07:50:12.009Z,8.85
2023-08-19T07:52:39.928Z,7.97
2023-08-19T07:55:12.757Z,8.07
2023-08-19T07:57:40.777Z,8.20
2023-08-19T08:00:10.499Z,8.07
2023-08-19T08:02:38.514Z,8.13
2023-08-19T08:05:07.803Z,8.23
2023-08-19T08:07:35.962Z,7.78
2023-08-19T08:10:05.095Z,10.50
2023-08-19T08:12:34.604Z,8.98
2023-08-19T08:15:03.759Z,8.43
2023-08-19T08:17:32.372Z,8.43
2023-08-19T08:20:00.833Z,8.80
2023-08-19T08:22:28.866Z,8.50
2023-08-19T08:24:57.681Z,8.80
2023-08-19T08:27:26.167Z,8.45
2023-08-19T08:29:55.545Z,8.43
2023-08-19T08:32:23.501Z,7.95
2023-08-19T08:34:51.606Z,10.15
2023-08-19T08:37:19.779Z,8.07
2023-08-19T08:39:47.803Z,7.55
2023-08-19T08:42:16.707Z,8.35
2023-08-19T08:44:48.009Z,7.53
2023-08-19T08:47:17.652Z,8.10
2023-08-19T08:49:48.513Z,7.45
2023-08-19T08:52:16.496Z,7.85
2023-08-19T08:54:45.411Z,7.32
2023-08-19T08:57:15.500Z,7.65
2023-08-19T08:59:43.737Z,8.10
2023-08-19T09:02:13.649Z,9.27
2023-08-19T09:04:46.237Z,8.95
2023-08-19T09:07:18.057Z,8.23
2023-08-19T09:09:48.801Z,7.65
2023-08-19T09:12:16.766Z,8.10
2023-08-19T09:14:46.530Z,8.35
2023-08-19T09:17:15.336Z,7.88
2023-08-19T09:19:45.036Z,8.63
2023-08-19T09:22:20.893Z,8.63
2023-08-19T09:24:49.156Z,9.43
2023-08-19T09:27:19.895Z,9.73
2023-08-19T09:29:51.810Z,8.90
2023-08-19T09:32:28.773Z,9.30
2023-08-19T09:35:05.176Z,9.75
2023-08-19T09:37:33.575Z,9.77
2023-08-19T09:40:01.731Z,9.77
2023-08-19T09:42:30.232Z,10.52
2023-08-19T09:45:00.892Z,10.50
2023-08-19T09:47:30.166Z,9.82
2023-08-19T09:50:04.259Z,10.40
2023-08-19T09:52:32.509Z,11.60
2023-08-19T09:55:02.254Z,10.55
2023-08-19T09:57:34.338Z,11.00
2023-08-19T10:00:04.861Z,12.00
2023-08-19T10:02:33.240Z,11.05
2023-08-19T10:05:01.325Z,11.60
2023-08-19T10:07:33.894Z,12.23
2023-08-19T10:10:04.891Z,12.10
2023-08-19T10:12:35.962Z,12.75
2023-08-19T10:15:04.849Z,13.48
2023-08-19T10:17:35.572Z,12.90
2023-08-19T10:20:08.536Z,13.63
2023-08-19T10:22:39.838Z,11.95
2023-08-19T10:25:10.061Z,12.30
2023-08-19T10:27:38.624Z,10.98
2023-08-19T10:30:29.795Z,10.95
2023-08-19T10:32:57.817Z,9.93
2023-08-19T10:35:25.890Z,8.18
2023-08-19T10:37:56.677Z,8.18
2023-08-19T10:40:26.512Z,7.47
2023-08-19T10:42:59.947Z,7.07
2023-08-19T10:45:32.863Z,7.40
2023-08-19T10:48:01.147Z,7.13
2023-08-19T10:50:29.637Z,6.97
2023-08-19T10:53:04.336Z,5.20
2023-08-19T10:55:53.215Z,4.53
2023-08-19T10:58:22.329Z,3.75
2023-08-19T11:00:51.193Z,4.25
2023-08-19T11:03:19.302Z,3.90
2023-08-19T11:05:50.748Z,4.10
2023-08-19T11:08:20.554Z,3.38
2023-08-19T11:10:49.251Z,3.53
2023-08-19T11:13:18.260Z,3.72
2023-08-19T11:15:46.150Z,3.90
2023-08-19T11:18:21.268Z,3.63
2023-08-19T11:20:49.313Z,3.72
2023-08-19T11:23:27.663Z,4.50
2023-08-19T11:25:56.246Z,3.75
2023-08-19T11:28:24.277Z,3.65
2023-08-19T11:30:53.155Z,4.55
2023-08-19T11:33:24.928Z,4.18
2023-08-19T11:35:53.350Z,3.95
2023-08-19T11:38:22.701Z,4.20
2023-08-19T11:40:53.901Z,4.43
2023-08-19T11:43:24.716Z,4.25
2023-08-19T11:45:54.557Z,4.65
2023-08-19T11:48:22.605Z,4.32
2023-08-19T11:50:51.750Z,4.97
2023-08-19T11:53:27.891Z,4.53
2023-08-19T11:55:59.466Z,3.97
2023-08-19T11:58:38.636Z,4.47
2023-08-19T12:01:09.919Z,5.00
2023-08-19T12:03:37.886Z,5.10
2023-08-19T12:06:05.973Z,4.65
2023-08-19T12:08:35.597Z,4.22
2023-08-19T12:11:03.561Z,4.72
2023-08-19T12:13:33.775Z,4.82
2023-08-19T12:16:03.936Z,4.20
2023-08-19T12:18:33.670Z,4.85
2023-08-19T12:21:04.132Z,4.78
2023-08-19T12:23:32.504Z,5.18
2023-08-19T12:26:02.687Z,5.93
2023-08-19T12:28:30.973Z,5.95
2023-08-19T12:30:59.632Z,6.43
2023-08-19T12:33:29.104Z,5.97
2023-08-19T12:36:12.550Z,6.70
2023-08-19T12:38:46.522Z,7.00
2023-08-19T12:41:16.320Z,6.53
2023-08-19T12:43:44.276Z,6.63
2023-08-19T12:46:12.597Z,4.95
2023-08-19T12:48:40.984Z,4.70
2023-08-19T12:51:09.249Z,4.00
2023-08-19T12:53:37.233Z,3.78
2023-08-19T12:56:05.275Z,2.50
2023-08-19T12:58:34.985Z,1.90
2023-08-19T13:01:05.859Z,1.52
2023-08-19T13:03:33.959Z,1.38
2023-08-19T13:06:01.946Z,1.45
2023-08-19T13:08:30.328Z,1.00
2023-08-19T13:11:01.497Z,1.00
2023-08-19T13:13:29.819Z,0.85
2023-08-19T13:15:59.263Z,0.88
2023-08-19T13:18:27.585Z,0.88
2023-08-19T13:20:55.498Z,1.13
2023-08-19T13:23:23.437Z,1.23
2023-08-19T13:25:51.404Z,1.17
2023-08-19T13:28:19.406Z,0.90
2023-08-19T13:30:47.301Z,1.30
2023-08-19T13:33:16.697Z,1.10
2023-08-19T13:35:44.576Z,1.30
2023-08-19T13:38:12.441Z,1.30
2023-08-19T13:40:40.344Z,1.30
2023-08-19T13:43:08.628Z,1.70
2023-08-19T13:45:36.567Z,1.45
2023-08-19T13:48:14.652Z,1.75
2023-08-19T13:50:46.634Z,1.70
2023-08-19T13:53:14.559Z,1.75
2023-08-19T13:55:44.622Z,1.50
2023-08-19T13:58:12.728Z,1.95
2023-08-19T14:00:40.742Z,1.60
2023-08-19T14:03:08.916Z,1.55
2023-08-19T14:05:36.928Z,1.17
2023-08-19T14:08:06.802Z,1.75
2023-08-19T14:10:34.861Z,1.33
2023-08-19T14:13:02.751Z,1.65
2023-08-19T14:15:30.855Z,1.83
2023-08-19T14:17:58.964Z,1.50
2023-08-19T14:20:29.249Z,1.55
2023-08-19T14:22:58.777Z,2.03
2023-08-19T14:25:28.605Z,1.80
2023-08-19T14:27:56.745Z,1.83
2023-08-19T14:30:24.893Z,1.88
2023-08-19T14:32:52.908Z,2.28
2023-08-19T14:35:20.839Z,2.42
2023-08-19T14:37:49.759Z,1.92
2023-08-19T14:40:20.269Z,2.05
2023-08-19T14:42:49.667Z,2.20
2023-08-19T14:45:18.027Z,2.55
2023-08-19T14:47:46.041Z,2.15
2023-08-19T14:50:14.079Z,2.10
2023-08-19T14:52:42.020Z,2.67
2023-08-19T14:55:12.054Z,2.72
2023-08-19T14:57:40.399Z,3.10
2023-08-19T15:00:13.728Z,2.80
2023-08-19T15:02:46.148Z,2.45
2023-08-19T15:05:14.327Z,2.63
2023-08-19T15:07:42.306Z,2.88
2023-08-19T15:10:10.978Z,2.63
2023-08-19T15:12:39.063Z,3.00
2023-08-19T15:15:12.354Z,3.33
2023-08-19T15:17:40.559Z,2.50
2023-08-19T15:20:11.877Z,2.60
2023-08-19T15:22:39.867Z,2.97
2023-08-19T15:25:10.323Z,3.08
2023-08-19T15:27:39.182Z,2.85
2023-08-19T15:30:10.983Z,2.78
2023-08-19T15:32:39.063Z,2.92
2023-08-19T15:35:09.704Z,2.72
2023-08-19T15:37:37.962Z,2.63
2023-08-19T15:40:07.427Z,2.75
2023-08-19T15:42:35.658Z,3.30
2023-08-19T15:45:04.079Z,2.63
2023-08-19T15:47:33.650Z,3.13
2023-08-19T15:50:01.806Z,2.55
2023-08-19T15:52:30.025Z,2.70
2023-08-19T15:54:57.975Z,3.03
2023-08-19T15:57:26.135Z,3.28
2023-08-19T15:59:54.088Z,2.95
2023-08-19T16:02:22.069Z,3.60
2023-08-19T16:04:52.232Z,2.88
2023-08-19T16:07:20.200Z,2.97
2023-08-19T16:09:48.158Z,2.35
2023-08-19T16:12:16.336Z,3.13
2023-08-19T16:14:44.325Z,2.63
2023-08-19T16:17:12.275Z,2.80
2023-08-19T16:19:40.159Z,3.30
2023-08-19T16:22:10.031Z,3.00
2023-08-19T16:24:38.039Z,2.85
2023-08-19T16:27:05.981Z,2.80
2023-08-19T16:29:33.926Z,3.92
2023-08-19T16:32:02.727Z,3.08
2023-08-19T16:34:30.801Z,3.33
2023-08-19T16:36:58.940Z,2.70
2023-08-19T16:39:29.433Z,2.95
2023-08-19T16:41:59.516Z,2.53
2023-08-19T16:44:27.648Z,2.80
2023-08-19T16:46:55.562Z,2.72
2023-08-19T16:49:23.502Z,2.85
2023-08-19T16:51:51.471Z,2.65
2023-08-19T16:54:19.369Z,2.67
2023-08-19T16:56:48.833Z,3.33
2023-08-19T16:59:16.760Z,2.72
2023-08-19T17:01:44.673Z,2.70
2023-08-19T17:04:12.653Z,2.78
2023-08-19T17:06:40.618Z,2.88
2023-08-19T17:09:11.780Z,2.90
2023-08-19T17:11:39.700Z,2.78
2023-08-19T17:14:09.084Z,2.80
2023-08-19T17:16:39.089Z,2.60
2023-08-19T17:19:08.824Z,2.85
2023-08-19T17:21:36.751Z,3.08
2023-08-19T17:24:05.280Z,2.65
2023-08-19T17:26:33.199Z,2.65
2023-08-19T17:29:01.235Z,2.60
2023-08-19T17:31:30.699Z,3.05
2023-08-19T17:33:59.191Z,2.70
2023-08-19T17:36:27.555Z,2.38
2023-08-19T17:38:55.507Z,2.58
2023-08-19T17:41:23.450Z,2.58
2023-08-19T17:43:51.377Z,2.40
2023-08-19T17:46:19.300Z,2.38
2023-08-19T17:48:49.623Z,2.25
2023-08-19T17:51:17.612Z,2.80
2023-08-19T17:53:45.583Z,2.72
2023-08-19T17:56:13.704Z,2.50
2023-08-19T17:58:41.753Z,2.30
2023-08-19T18:01:10.185Z,2.40
2023-08-19T18:03:38.437Z,2.78
2023-08-19T18:06:07.941Z,1.75
2023-08-19T18:08:36.025Z,2.17
2023-08-19T18:11:03.965Z,2.33
2023-08-19T18:13:31.973Z,1.85
2023-08-19T18:16:00.426Z,2.10
2023-08-19T18:18:30.509Z,1.98
2023-08-19T18:20:58.727Z,2.28
2023-08-19T18:23:28.661Z,1.73
2023-08-19T18:25:56.691Z,2.17
2023-08-19T18:28:24.584Z,2.85
2023-08-19T18:30:56.153Z,2.17
2023-08-19T18:33:24.312Z,2.45
2023-08-19T18:35:54.100Z,2.25
2023-08-19T18:38:22.422Z,2.15
2023-08-19T18:40:51.650Z,1.98
2023-08-19T18:43:19.614Z,2.25
2023-08-19T18:45:49.094Z,2.40
2023-08-19T18:48:17.107Z,1.90
2023-08-19T18:50:47.568Z,3.03
2023-08-19T18:53:15.548Z,3.08
2023-08-19T18:55:43.591Z,3.08
2023-08-19T18:58:12.933Z,3.10
2023-08-19T19:00:40.951Z,2.75
2023-08-19T19:03:08.909Z,2.60
2023-08-19T19:05:36.932Z,2.60
2023-08-19T19:08:07.580Z,2.60
2023-08-19T19:10:35.556Z,2.67
2023-08-19T19:13:03.494Z,2.38
2023-08-19T19:15:33.922Z,2.35
2023-08-19T19:18:03.444Z,2.47
2023-08-19T19:20:31.536Z,2.30
2023-08-19T19:23:02.740Z,2.30
2023-08-19T19:25:30.863Z,2.88
2023-08-19T19:27:58.935Z,2.65
2023-08-19T19:30:27.184Z,2.30
2023-08-19T19:32:56.777Z,2.65
2023-08-19T19:35:24.865Z,3.08
2023-08-19T19:37:52.916Z,2.90
2023-08-19T19:40:21.102Z,2.10
2023-08-19T19:42:50.640Z,2.20
2023-08-19T19:45:18.784Z,3.40
2023-08-19T19:47:46.814Z,2.90
2023-08-19T19:50:16.769Z,4.60
2023-08-19T19:52:44.795Z,5.15
2023-08-19T19:55:12.898Z,5.18
2023-08-19T19:57:40.904Z,4.85
2023-08-19T20:00:11.620Z,3.70
2023-08-19T20:02:40.042Z,2.70
2023-08-19T20:05:08.737Z,2.55
2023-08-19T20:07:38.219Z,2.60
2023-08-19T20:10:24.185Z,2.70
2023-08-19T20:12:54.636Z,2.20
2023-08-19T20:15:22.580Z,2.90
2023-08-19T20:17:52.301Z,2.90
2023-08-19T20:20:21.332Z,2.80
2023-08-19T20:22:52.284Z,2.88
2023-08-19T20:25:20.437Z,3.30
2023-08-19T20:27:48.412Z,3.28
2023-08-19T20:30:16.551Z,3.67
2023-08-19T20:32:44.532Z,3.63
2023-08-19T20:35:12.709Z,4.20
2023-08-19T20:37:40.715Z,4.68
2023-08-19T20:40:11.160Z,3.72
2023-08-19T20:42:40.781Z,3.63
2023-08-19T20:45:11.116Z,4.85
2023-08-19T20:47:39.221Z,3.60
2023-08-19T20:50:07.725Z,3.38
2023-08-19T20:52:35.797Z,3.00
2023-08-19T20:55:03.747Z,3.15
2023-08-19T20:57:33.461Z,3.15
2023-08-19T21:00:01.758Z,3.60
2023-08-19T21:02:29.889Z,3.05
2023-08-19T21:04:57.857Z,3.78
2023-08-19T21:07:25.820Z,2.88
2023-08-19T21:09:53.811Z,6.63
2023-08-19T21:12:21.691Z,4.72
2023-08-19T21:14:51.048Z,4.00
2023-08-19T21:17:18.900Z,3.47
2023-08-19T21:19:46.944Z,2.60
2023-08-19T21:22:14.909Z,2.70
2023-08-19T21:24:42.834Z,2.80
2023-08-19T21:27:12.489Z,3.17
2023-08-19T21:29:40.453Z,3.13
2023-08-19T21:32:09.813Z,2.67
2023-08-19T21:34:37.681Z,2.38
2023-08-19T21:37:14.692Z,2.40
2023-08-19T21:39:42.661Z,2.50
2023-08-19T21:42:10.803Z,3.22
2023-08-19T21:44:38.787Z,2.58
2023-08-19T21:47:06.859Z,2.80
2023-08-19T21:49:36.781Z,3.10
2023-08-19T21:52:05.100Z,3.38
2023-08-19T21:54:33.187Z,2.63
2023-08-19T21:57:01.211Z,3.00
2023-08-19T21:59:29.124Z,3.03
2023-08-19T22:01:57.539Z,3.05
2023-08-19T22:04:25.548Z,2.70
2023-08-19T22:06:54.759Z,3.03
2023-08-19T22:09:22.660Z,3.08
2023-08-19T22:11:50.961Z,3.08
2023-08-19T22:14:18.838Z,3.77
2023-08-19T22:16:46.885Z,3.22
2023-08-19T22:19:15.175Z,2.45
2023-08-19T22:21:43.371Z,2.17
2023-08-19T22:24:12.800Z,2.70
2023-08-19T22:26:40.637Z,2.63
2023-08-19T22:29:09.420Z,2.72
2023-08-19T22:31:37.374Z,3.53
2023-08-19T22:34:05.721Z,4.05
2023-08-19T22:36:33.734Z,4.53
2023-08-19T22:39:01.705Z,4.40
2023-08-19T22:41:31.170Z,4.93
2023-08-19T22:43:59.233Z,4.60
2023-08-19T22:46:27.759Z,4.55
2023-08-19T22:48:55.684Z,4.93
2023-08-19T22:51:23.700Z,4.32
2023-08-19T22:53:51.645Z,4.55
2023-08-19T22:56:19.621Z,4.38
2023-08-19T22:58:48.928Z,4.07
2023-08-19T23:01:16.792Z,3.90
2023-08-19T23:03:44.742Z,3.47
2023-08-19T23:06:12.708Z,4.00
2023-08-19T23:08:40.633Z,3.50
2023-08-19T23:11:08.795Z,3.55
2023-08-19T23:13:36.767Z,3.40
2023-08-19T23:16:06.086Z,3.58
2023-08-19T23:18:34.106Z,3.35
2023-08-19T23:21:02.103Z,2.83
2023-08-19T23:23:30.444Z,2.78
2023-08-19T23:25:59.926Z,2.60
2023-08-19T23:28:27.974Z,2.65
2023-08-19T23:30:56.554Z,3.40
2023-08-19T23:33:26.513Z,2.88
2023-08-19T23:35:54.468Z,3.00
2023-08-19T23:38:22.420Z,3.22
2023-08-19T23:40:50.709Z,3.65
2023-08-19T23:43:18.777Z,3.25
2023-08-19T23:45:46.855Z,4.07
2023-08-19T23:48:15.461Z,3.80
2023-08-19T23:50:45.418Z,3.45
2023-08-19T23:53:14.847Z,3.08
2023-08-19T23:55:43.361Z,3.42
2023-08-19T23:58:11.809Z,3.60
